Time;durP1;ratioP1;P1;durP2;ratioP2;P2;SDS_P1;SDS_P2;PMS_P1;PMS_P2;Temp;Humidity;BMP_temperature;BMP_pressure;BME280_temperature;BME280_humidity;BME280_pressure;Samples;Min_cycle;Max_cycle;Signal;HPM_P1;HPM_P2
2021/09/22 00:00:01;;;;;;;13.95;9.95;;;11.70;99.90;;;;;;4924873;29;20032;-74
2021/09/22 00:02:27;;;;;;;11.65;9.50;;;11.70;99.90;;;;;;4922847;29;20488;-74
2021/09/22 00:04:52;;;;;;;11.68;9.90;;;11.70;99.90;;;;;;4957176;29;20039;-73
2021/09/22 00:07:18;;;;;;;12.07;9.93;;;11.70;99.90;;;;;;4939322;29;20476;-74
2021/09/22 00:09:43;;;;;;;10.93;9.70;;;11.70;99.90;;;;;;4939994;29;20031;-73
2021/09/22 00:12:09;;;;;;;12.18;9.27;;;11.70;99.90;;;;;;4956966;29;20059;-73
2021/09/22 00:14:35;;;;;;;10.25;9.15;;;11.60;99.90;;;;;;4956952;28;20031;-73
2021/09/22 00:17:00;;;;;;;10.75;9.48;;;11.60;99.90;;;;;;4956336;28;20412;-73
2021/09/22 00:19:26;;;;;;;12.20;10.38;;;11.60;99.90;;;;;;4957285;29;20035;-73
2021/09/22 00:21:51;;;;;;;13.18;10.65;;;11.60;99.90;;;;;;4940037;29;20023;-73
2021/09/22 00:24:17;;;;;;;12.27;10.38;;;11.50;99.90;;;;;;4939190;29;20065;-73
2021/09/22 00:26:43;;;;;;;11.18;9.80;;;11.50;99.90;;;;;;4940041;29;20019;-73
2021/09/22 00:29:08;;;;;;;12.13;9.68;;;11.50;99.90;;;;;;4939447;29;20093;-73
2021/09/22 00:31:36;;;;;;;10.77;9.52;;;11.50;99.90;;;;;;4956662;28;20027;-74
2021/09/22 00:34:03;;;;;;;11.40;10.20;;;11.50;99.90;;;;;;4938451;29;20026;-74
2021/09/22 00:36:29;;;;;;;11.57;9.48;;;11.50;99.90;;;;;;4949359;28;20031;-74
2021/09/22 00:38:54;;;;;;;15.13;11.55;;;11.40;99.90;;;;;;4960520;28;20031;-75
2021/09/22 00:41:20;;;;;;;14.13;12.05;;;11.40;99.90;;;;;;4927447;29;20062;-74
2021/09/22 00:43:45;;;;;;;14.23;12.32;;;11.40;99.90;;;;;;4938963;29;20058;-73
2021/09/22 00:46:11;;;;;;;14.52;11.05;;;11.40;99.90;;;;;;4955443;28;20038;-73
2021/09/22 00:48:36;;;;;;;12.35;10.18;;;11.30;99.90;;;;;;4956287;29;20045;-74
2021/09/22 00:51:04;;;;;;;14.48;11.23;;;11.30;99.90;;;;;;4956111;29;20027;-75
2021/09/22 00:53:30;;;;;;;12.95;11.15;;;11.30;99.90;;;;;;4955803;29;20030;-74
2021/09/22 00:55:57;;;;;;;12.90;11.43;;;11.30;99.90;;;;;;4956141;29;20027;-74
2021/09/22 00:58:23;;;;;;;13.18;11.73;;;11.30;99.90;;;;;;4939376;29;20023;-74
2021/09/22 01:00:48;;;;;;;14.52;11.65;;;11.20;99.90;;;;;;4938744;29;20443;-74
2021/09/22 01:03:14;;;;;;;14.73;12.05;;;11.20;99.90;;;;;;4956154;29;20070;-74
2021/09/22 01:05:39;;;;;;;12.65;10.93;;;11.20;99.90;;;;;;4938442;29;20501;-74
2021/09/22 01:08:09;;;;;;;14.07;11.65;;;11.20;99.90;;;;;;4939059;29;20024;-74
2021/09/22 01:10:35;;;;;;;14.30;12.63;;;11.20;99.90;;;;;;4939295;29;20507;-74
2021/09/22 01:13:01;;;;;;;12.85;11.45;;;11.20;99.90;;;;;;4938274;29;20097;-74
2021/09/22 01:15:33;;;;;;;12.75;11.45;;;11.20;99.90;;;;;;4939153;29;20054;-74
2021/09/22 01:17:59;;;;;;;14.57;10.77;;;11.20;99.90;;;;;;4938310;29;20023;-74
2021/09/22 01:20:29;;;;;;;16.05;11.48;;;11.20;99.90;;;;;;4955516;29;20019;-74
2021/09/22 01:22:56;;;;;;;14.25;11.85;;;11.10;99.90;;;;;;4938398;29;20023;-74
2021/09/22 01:25:22;;;;;;;14.07;12.00;;;11.10;99.90;;;;;;4955908;29;20027;-74
2021/09/22 01:27:49;;;;;;;14.07;11.30;;;11.10;99.90;;;;;;4938232;29;20027;-74
2021/09/22 01:30:16;;;;;;;12.63;11.32;;;11.10;99.90;;;;;;4955770;29;20035;-74
2021/09/22 01:33:09;;;;;;;11.57;10.38;;;11.10;99.90;;;;;;4938616;29;20011;-75
2021/09/22 01:35:37;;;;;;;11.60;10.40;;;11.00;99.90;;;;;;4952908;29;20043;-74
2021/09/22 01:38:14;;;;;;;14.07;11.65;;;11.00;99.90;;;;;;4955688;29;20031;-74
2021/09/22 01:40:51;;;;;;;14.23;11.88;;;11.00;99.90;;;;;;4938248;29;20476;-75
2021/09/22 01:43:16;;;;;;;14.38;12.77;;;11.00;99.90;;;;;;4938201;29;20039;-74
2021/09/22 01:45:42;;;;;;;15.82;13.05;;;11.00;99.90;;;;;;4938599;29;20353;-74
2021/09/22 01:48:07;;;;;;;13.05;11.43;;;11.00;99.90;;;;;;4954042;28;20032;-75
2021/09/22 01:50:33;;;;;;;13.48;11.43;;;10.90;99.90;;;;;;4938395;29;20023;-74
2021/09/22 01:52:59;;;;;;;12.20;10.88;;;11.00;99.90;;;;;;4937949;29;20031;-75
2021/09/22 01:55:24;;;;;;;13.02;11.65;;;10.90;99.90;;;;;;4937817;29;20033;-74
2021/09/22 01:57:50;;;;;;;13.18;11.35;;;10.90;99.90;;;;;;4938317;29;20027;-75
2021/09/22 02:00:16;;;;;;;15.77;12.90;;;10.90;99.90;;;;;;4937997;29;20035;-75
2021/09/22 02:02:42;;;;;;;15.63;12.25;;;10.90;99.90;;;;;;4955146;29;20020;-74
2021/09/22 02:05:08;;;;;;;13.48;11.98;;;10.90;99.90;;;;;;4954928;29;20039;-74
2021/09/22 02:07:35;;;;;;;15.00;13.27;;;10.80;99.90;;;;;;4938285;29;20038;-74
2021/09/22 02:10:02;;;;;;;15.50;13.90;;;10.80;99.90;;;;;;4937104;29;20133;-74
2021/09/22 02:12:28;;;;;;;14.95;12.95;;;10.80;99.90;;;;;;4955936;29;20140;-74
2021/09/22 02:14:55;;;;;;;22.00;14.27;;;10.80;99.90;;;;;;4954795;29;20106;-74
2021/09/22 02:17:22;;;;;;;16.73;13.73;;;10.80;99.90;;;;;;4937296;29;20031;-74
2021/09/22 02:19:47;;;;;;;19.70;15.38;;;10.80;99.90;;;;;;4937791;29;20428;-75
2021/09/22 02:22:13;;;;;;;17.17;14.80;;;10.80;99.90;;;;;;4937323;29;20019;-74
2021/09/22 02:24:42;;;;;;;16.90;15.10;;;10.80;99.90;;;;;;4937301;29;20035;-74
2021/09/22 02:27:13;;;;;;;17.08;15.20;;;10.80;99.90;;;;;;4937530;29;20078;-74
2021/09/22 02:29:40;;;;;;;17.38;14.43;;;10.80;99.90;;;;;;4937926;29;20074;-74
2021/09/22 02:32:06;;;;;;;15.52;13.82;;;10.80;99.90;;;;;;4936813;29;20023;-74
2021/09/22 02:34:32;;;;;;;19.35;16.02;;;10.80;99.90;;;;;;4938075;29;20027;-74
2021/09/22 02:36:57;;;;;;;16.95;15.20;;;10.80;99.90;;;;;;4954128;29;20031;-75
2021/09/22 02:39:23;;;;;;;18.38;16.30;;;10.80;99.90;;;;;;4936904;29;20027;-74
2021/09/22 02:41:49;;;;;;;21.17;18.02;;;10.80;99.90;;;;;;4937222;29;20031;-74
2021/09/22 02:44:14;;;;;;;19.67;17.08;;;10.90;99.90;;;;;;4936810;29;20121;-74
2021/09/22 02:46:40;;;;;;;18.63;16.63;;;10.80;99.90;;;;;;4954469;29;20030;-74
2021/09/22 02:49:06;;;;;;;19.48;16.98;;;10.90;99.90;;;;;;4954312;29;20031;-74
2021/09/22 02:51:32;;;;;;;21.77;17.83;;;10.90;99.90;;;;;;4936841;29;20023;-75
2021/09/22 02:53:58;;;;;;;23.92;19.90;;;10.90;99.90;;;;;;4936868;29;20042;-75
2021/09/22 02:56:23;;;;;;;19.52;17.27;;;10.90;99.90;;;;;;4937222;29;20023;-75
2021/09/22 02:58:49;;;;;;;20.73;18.05;;;10.90;99.90;;;;;;4953637;28;20035;-75
2021/09/22 03:01:15;;;;;;;23.38;17.05;;;10.90;99.90;;;;;;4936739;29;20023;-75
2021/09/22 03:03:40;;;;;;;21.05;18.08;;;10.90;99.90;;;;;;4954720;29;20036;-75
2021/09/22 03:06:06;;;;;;;19.00;16.73;;;10.90;99.90;;;;;;4936245;29;20027;-75
2021/09/22 03:08:31;;;;;;;19.70;17.67;;;10.90;99.90;;;;;;4937049;29;20415;-75
2021/09/22 03:10:58;;;;;;;19.48;17.48;;;10.90;99.90;;;;;;4936630;29;20035;-75
2021/09/22 03:13:23;;;;;;;17.75;15.88;;;10.90;99.90;;;;;;4936692;29;20079;-75
2021/09/22 03:15:49;;;;;;;19.55;16.60;;;10.90;99.90;;;;;;4936935;29;20023;-75
2021/09/22 03:18:15;;;;;;;19.80;16.83;;;10.90;99.90;;;;;;4936767;29;20027;-75
2021/09/22 03:20:41;;;;;;;18.55;15.88;;;10.90;99.90;;;;;;4936650;29;20140;-75
2021/09/22 03:23:06;;;;;;;20.55;18.35;;;10.90;99.90;;;;;;4936667;29;20034;-75
2021/09/22 03:25:32;;;;;;;19.60;16.25;;;10.90;99.90;;;;;;4937158;29;20027;-75
2021/09/22 03:27:57;;;;;;;18.50;16.25;;;10.90;99.90;;;;;;4953141;29;20106;-75
2021/09/22 03:30:23;;;;;;;18.73;15.88;;;10.80;99.90;;;;;;4937071;29;20069;-76
2021/09/22 03:32:48;;;;;;;17.70;15.82;;;10.80;99.90;;;;;;4936924;29;20066;-75
2021/09/22 03:35:14;;;;;;;17.77;15.88;;;10.80;99.90;;;;;;4953406;29;20040;-75
2021/09/22 03:37:40;;;;;;;17.20;14.88;;;10.80;99.90;;;;;;4954004;29;20028;-75
2021/09/22 03:40:06;;;;;;;17.85;15.93;;;10.80;99.90;;;;;;4953814;29;20027;-75
2021/09/22 03:42:31;;;;;;;16.73;14.93;;;10.80;99.90;;;;;;4936206;29;20043;-75
2021/09/22 03:44:57;;;;;;;20.08;17.08;;;10.80;99.90;;;;;;4936276;29;20443;-75
2021/09/22 03:47:23;;;;;;;18.98;16.13;;;10.80;99.90;;;;;;4953565;29;20472;-75
2021/09/22 03:49:48;;;;;;;19.63;16.17;;;10.80;99.90;;;;;;4937087;29;20027;-75
2021/09/22 03:52:14;;;;;;;19.20;15.90;;;10.70;99.90;;;;;;4936334;29;20189;-75
2021/09/22 03:54:39;;;;;;;18.85;16.67;;;10.80;99.90;;;;;;4936390;29;20181;-75
2021/09/22 03:57:05;;;;;;;17.45;15.50;;;10.70;99.90;;;;;;4936164;29;20019;-75
2021/09/22 03:59:31;;;;;;;20.52;17.13;;;10.70;99.90;;;;;;4936864;29;20019;-74
2021/09/22 04:01:57;;;;;;;18.15;15.60;;;10.70;99.90;;;;;;4936087;29;20114;-74
2021/09/22 04:04:22;;;;;;;19.35;16.52;;;10.70;99.90;;;;;;4937034;29;20480;-75
2021/09/22 04:06:48;;;;;;;21.55;17.10;;;10.70;99.90;;;;;;4936656;29;20063;-75
2021/09/22 04:09:15;;;;;;;21.05;18.13;;;10.70;99.90;;;;;;4935734;28;20027;-75
2021/09/22 04:11:41;;;;;;;22.90;18.02;;;10.70;99.90;;;;;;4956953;29;20042;-75
2021/09/22 04:14:07;;;;;;;19.33;16.58;;;10.70;99.90;;;;;;4939768;29;20484;-75
2021/09/22 04:16:32;;;;;;;20.00;16.65;;;10.70;99.90;;;;;;4939636;29;20464;-75
2021/09/22 04:18:58;;;;;;;20.08;16.67;;;10.70;99.90;;;;;;4957203;29;20035;-75
2021/09/22 04:21:24;;;;;;;19.98;17.25;;;10.60;99.90;;;;;;4957434;29;20019;-75
2021/09/22 04:23:49;;;;;;;18.92;16.85;;;10.60;99.90;;;;;;4939522;29;20031;-75
2021/09/22 04:26:15;;;;;;;20.33;16.88;;;10.60;99.90;;;;;;4939649;29;20038;-75
2021/09/22 04:28:40;;;;;;;20.85;17.50;;;10.70;99.90;;;;;;4957208;29;20475;-75
2021/09/22 04:31:06;;;;;;;19.13;16.83;;;10.70;99.90;;;;;;4938742;29;20023;-75
2021/09/22 04:33:32;;;;;;;20.95;17.65;;;10.60;99.90;;;;;;4939977;29;20035;-75
2021/09/22 04:35:58;;;;;;;23.63;18.13;;;10.60;99.90;;;;;;4939466;29;20089;-75
2021/09/22 04:38:24;;;;;;;21.23;18.63;;;10.60;99.90;;;;;;4939173;29;20085;-75
2021/09/22 04:40:50;;;;;;;20.92;18.52;;;10.60;99.90;;;;;;4957118;29;20023;-75
2021/09/22 04:43:16;;;;;;;20.35;17.88;;;10.50;99.90;;;;;;4956326;29;20074;-75
2021/09/22 04:45:45;;;;;;;21.63;17.33;;;10.50;99.90;;;;;;4956153;29;20027;-75
2021/09/22 04:48:10;;;;;;;22.13;18.65;;;10.50;99.90;;;;;;4939407;29;20031;-75
2021/09/22 04:50:36;;;;;;;18.98;16.92;;;10.50;99.90;;;;;;4956556;29;20031;-75
2021/09/22 04:53:01;;;;;;;21.27;17.98;;;10.50;99.90;;;;;;4956375;29;20024;-75
2021/09/22 04:55:27;;;;;;;20.17;17.70;;;10.50;99.90;;;;;;4956713;29;20023;-75
2021/09/22 04:57:53;;;;;;;20.58;17.23;;;10.50;99.90;;;;;;4938439;29;20029;-75
2021/09/22 05:00:18;;;;;;;20.90;17.08;;;10.40;99.90;;;;;;4939376;29;20051;-76
2021/09/22 05:02:44;;;;;;;22.20;18.17;;;10.50;99.90;;;;;;4939534;29;20019;-75
2021/09/22 05:05:10;;;;;;;22.23;18.33;;;10.40;99.90;;;;;;4938214;29;20038;-75
2021/09/22 05:07:35;;;;;;;22.75;19.00;;;10.40;99.90;;;;;;4939496;29;20023;-75
2021/09/22 05:10:01;;;;;;;20.63;17.33;;;10.40;99.90;;;;;;4956132;29;20082;-75
2021/09/22 05:12:26;;;;;;;20.73;18.15;;;10.40;99.90;;;;;;4938780;29;20368;-75
2021/09/22 05:14:52;;;;;;;21.08;17.77;;;10.40;99.90;;;;;;4956429;29;20074;-75
2021/09/22 05:17:18;;;;;;;19.75;16.65;;;10.40;99.90;;;;;;4955776;29;20240;-75
2021/09/22 05:19:43;;;;;;;19.10;16.88;;;10.30;99.90;;;;;;4938745;29;20038;-76
2021/09/22 05:22:09;;;;;;;19.75;17.60;;;10.40;99.90;;;;;;4954615;28;20030;-75
2021/09/22 05:24:35;;;;;;;21.75;18.63;;;10.30;99.90;;;;;;4938962;29;20043;-75
2021/09/22 05:27:00;;;;;;;22.10;18.77;;;10.30;99.90;;;;;;4955200;29;20023;-75
2021/09/22 05:29:26;;;;;;;20.70;17.70;;;10.30;99.90;;;;;;4938996;29;20353;-75
2021/09/22 05:31:51;;;;;;;21.05;17.98;;;10.40;99.90;;;;;;4938744;29;20036;-75
2021/09/22 05:34:17;;;;;;;21.15;18.38;;;10.40;99.90;;;;;;4954765;29;20036;-75
2021/09/22 05:36:43;;;;;;;21.95;17.83;;;10.40;99.90;;;;;;4938438;29;20027;-75
2021/09/22 05:39:08;;;;;;;20.92;16.70;;;10.40;99.90;;;;;;4955261;29;20027;-75
2021/09/22 05:41:34;;;;;;;21.30;18.70;;;10.40;99.90;;;;;;4938086;29;20055;-74
2021/09/22 05:43:59;;;;;;;21.23;18.35;;;10.40;99.90;;;;;;4955241;29;20385;-75
2021/09/22 05:46:25;;;;;;;19.50;17.10;;;10.40;99.90;;;;;;4955507;29;20047;-75
2021/09/22 05:48:51;;;;;;;21.08;17.48;;;10.40;99.90;;;;;;4938085;29;20127;-75
2021/09/22 05:51:16;;;;;;;21.02;17.73;;;10.40;99.90;;;;;;4938232;29;20483;-75
2021/09/22 05:53:44;;;;;;;21.13;18.13;;;10.50;99.90;;;;;;4938428;29;20476;-75
2021/09/22 05:56:10;;;;;;;20.88;18.40;;;10.50;99.90;;;;;;4952451;29;20146;-74
2021/09/22 05:58:35;;;;;;;21.13;18.08;;;10.50;99.90;;;;;;4947633;29;20031;-74
2021/09/22 06:01:01;;;;;;;20.13;17.65;;;10.50;99.90;;;;;;4937127;28;20071;-75
2021/09/22 06:03:28;;;;;;;22.95;18.52;;;10.50;99.90;;;;;;4930986;29;20035;-75
2021/09/22 06:05:54;;;;;;;23.60;19.45;;;10.60;99.90;;;;;;4933675;29;20031;-74
2021/09/22 06:08:19;;;;;;;22.00;18.30;;;10.60;99.90;;;;;;4937340;29;20042;-74
2021/09/22 06:10:45;;;;;;;20.70;17.45;;;10.60;99.90;;;;;;4938360;29;20078;-74
2021/09/22 06:13:11;;;;;;;20.77;17.88;;;10.60;99.90;;;;;;4931422;29;20031;-74
2021/09/22 06:15:36;;;;;;;19.98;17.20;;;10.60;99.90;;;;;;4936993;29;20384;-75
2021/09/22 06:18:02;;;;;;;18.83;16.33;;;10.70;99.90;;;;;;4934931;29;20380;-75
2021/09/22 06:20:28;;;;;;;21.02;17.33;;;10.70;99.90;;;;;;4937707;29;20035;-76
2021/09/22 06:22:53;;;;;;;22.60;18.30;;;10.70;99.90;;;;;;4936122;29;20024;-74
2021/09/22 06:25:19;;;;;;;20.05;17.88;;;10.70;99.90;;;;;;4954812;29;20120;-75
2021/09/22 06:27:45;;;;;;;25.23;18.52;;;10.70;99.90;;;;;;4953801;28;20397;-75
2021/09/22 06:30:11;;;;;;;23.95;20.83;;;10.80;99.90;;;;;;4936969;29;20074;-77
2021/09/22 06:32:38;;;;;;;22.20;19.38;;;10.80;99.90;;;;;;4937629;28;20016;-75
2021/09/22 06:35:06;;;;;;;21.98;18.35;;;10.80;99.90;;;;;;4936932;29;20030;-83
2021/09/22 06:37:32;;;;;;;23.88;20.08;;;10.80;99.90;;;;;;4936122;29;20460;-81
2021/09/22 06:39:58;;;;;;;24.50;20.45;;;10.80;99.90;;;;;;4953506;29;20471;-74
2021/09/22 06:42:24;;;;;;;22.27;18.33;;;10.80;99.90;;;;;;4937062;29;20043;-75
2021/09/22 06:44:49;;;;;;;22.23;19.48;;;10.90;99.90;;;;;;4953923;29;20082;-77
2021/09/22 06:47:15;;;;;;;25.83;20.45;;;11.00;99.90;;;;;;4936226;29;20027;-76
2021/09/22 06:49:41;;;;;;;24.05;20.67;;;11.10;99.90;;;;;;4937438;29;20543;-85
2021/09/22 06:52:06;;;;;;;23.65;19.17;;;11.10;99.90;;;;;;4937273;29;20491;-78
2021/09/22 06:54:33;;;;;;;23.52;20.63;;;11.20;99.90;;;;;;4932450;29;20054;-84
2021/09/22 06:57:01;;;;;;;22.60;19.13;;;11.20;99.90;;;;;;4953427;28;20023;-85
2021/09/22 06:59:27;;;;;;;26.20;20.42;;;11.30;99.90;;;;;;4936494;29;20085;-73
2021/09/22 07:01:55;;;;;;;25.55;20.48;;;11.40;99.90;;;;;;4954647;29;20102;-76
2021/09/22 07:04:21;;;;;;;22.10;18.95;;;11.40;99.90;;;;;;4936024;29;20043;-75
2021/09/22 07:06:46;;;;;;;27.92;22.17;;;11.50;99.90;;;;;;4953023;29;20123;-76
2021/09/22 07:09:12;;;;;;;24.35;20.50;;;11.50;99.90;;;;;;4953958;29;20027;-80
2021/09/22 07:11:38;;;;;;;26.67;20.80;;;11.60;99.90;;;;;;4936592;29;20039;-75
2021/09/22 07:14:03;;;;;;;22.77;19.92;;;11.60;99.90;;;;;;4952163;29;20105;-80
2021/09/22 07:16:30;;;;;;;27.42;20.92;;;11.60;99.90;;;;;;4948694;29;20380;-79
2021/09/22 07:18:57;;;;;;;24.00;20.27;;;11.70;99.90;;;;;;4936158;29;20166;-80
2021/09/22 07:21:23;;;;;;;24.73;20.10;;;11.70;99.90;;;;;;4937091;29;20023;-79
2021/09/22 07:23:49;;;;;;;24.20;21.10;;;11.80;99.90;;;;;;4953541;29;20081;-79
2021/09/22 07:26:15;;;;;;;22.45;19.98;;;11.80;99.90;;;;;;4936301;29;20118;-81
2021/09/22 07:28:41;;;;;;;23.40;19.80;;;11.90;99.90;;;;;;4953869;29;20042;-73
2021/09/22 07:31:34;;;;;;;25.77;21.40;;;11.90;99.90;;;;;;4952829;29;20042;-82
2021/09/22 07:34:01;;;;;;;21.50;18.85;;;11.90;99.90;;;;;;4952546;29;20035;-81
2021/09/22 07:36:27;;;;;;;22.52;19.75;;;12.00;99.90;;;;;;4936474;29;20033;-82
2021/09/22 07:38:53;;;;;;;22.02;19.13;;;12.00;99.90;;;;;;4936555;29;20051;-82
2021/09/22 07:41:18;;;;;;;23.85;20.73;;;12.00;99.90;;;;;;4967504;28;20125;-79
2021/09/22 07:43:44;;;;;;;22.42;19.60;;;12.10;99.90;;;;;;4936119;29;20042;-81
2021/09/22 07:46:10;;;;;;;22.95;20.33;;;12.10;99.90;;;;;;4938411;29;20481;-81
2021/09/22 07:48:36;;;;;;;26.05;22.63;;;12.20;99.90;;;;;;4939876;29;20031;-77
2021/09/22 07:51:02;;;;;;;29.58;23.98;;;12.20;99.90;;;;;;4939979;29;20026;-84
2021/09/22 07:53:28;;;;;;;25.52;22.42;;;12.30;99.90;;;;;;4940297;29;20035;-83
2021/09/22 07:55:53;;;;;;;27.75;24.65;;;12.30;99.90;;;;;;4939945;29;20087;-81
2021/09/22 07:58:30;;;;;;;29.67;24.38;;;12.30;99.90;;;;;;4957133;29;20551;-82
2021/09/22 08:00:56;;;;;;;28.63;25.48;;;12.40;99.90;;;;;;4925339;29;20049;-81
2021/09/22 08:03:21;;;;;;;26.70;22.67;;;12.50;99.90;;;;;;4940119;29;20027;-82
2021/09/22 08:05:47;;;;;;;25.98;22.85;;;12.50;99.90;;;;;;4939629;29;20114;-82
2021/09/22 08:08:13;;;;;;;25.98;22.95;;;12.50;99.90;;;;;;4956159;29;20431;-80
2021/09/22 08:10:38;;;;;;;27.33;23.23;;;12.60;99.90;;;;;;4956678;29;20429;-84
2021/09/22 08:13:05;;;;;;;26.52;23.73;;;12.60;99.90;;;;;;4955770;29;20126;-80
2021/09/22 08:15:30;;;;;;;25.60;21.70;;;12.70;99.90;;;;;;4946014;29;20074;-79
2021/09/22 08:17:58;;;;;;;27.00;23.15;;;12.70;99.90;;;;;;4939847;29;20027;-87
2021/09/22 08:20:23;;;;;;;24.27;21.67;;;12.80;99.90;;;;;;4940534;29;20023;-89
2021/09/22 08:22:49;;;;;;;26.85;23.30;;;12.80;99.90;;;;;;4939459;29;20023;-81
2021/09/22 08:25:15;;;;;;;26.33;21.90;;;12.90;99.90;;;;;;4939666;29;20035;-84
2021/09/22 08:27:42;;;;;;;25.25;22.25;;;12.90;99.90;;;;;;4956490;29;20015;-84
2021/09/22 08:30:09;;;;;;;25.92;21.80;;;13.00;99.90;;;;;;4939960;29;20027;-86
2021/09/22 08:32:34;;;;;;;23.98;21.30;;;13.00;99.90;;;;;;4957310;29;20027;-82
2021/09/22 08:35:00;;;;;;;26.95;22.35;;;13.10;99.90;;;;;;4939084;29;20027;-83
2021/09/22 08:37:26;;;;;;;24.20;21.38;;;13.20;99.90;;;;;;4939035;29;20062;-80
2021/09/22 08:39:52;;;;;;;21.33;19.05;;;13.30;99.90;;;;;;4956569;29;20424;-83
2021/09/22 08:42:17;;;;;;;24.63;21.90;;;13.30;99.90;;;;;;4935284;29;20048;-82
2021/09/22 08:44:43;;;;;;;25.50;22.13;;;13.40;99.90;;;;;;4937551;29;20055;-87
2021/09/22 08:47:09;;;;;;;27.52;22.80;;;13.50;99.90;;;;;;4940185;29;20026;-83
2021/09/22 08:49:36;;;;;;;25.35;22.65;;;13.60;99.90;;;;;;4939820;29;20027;-88
2021/09/22 08:52:02;;;;;;;23.58;21.08;;;13.70;99.90;;;;;;4956527;28;20023;-88
2021/09/22 08:54:29;;;;;;;22.52;20.13;;;13.70;99.90;;;;;;4935412;29;20046;-79
2021/09/22 08:56:55;;;;;;;23.00;20.60;;;13.70;99.90;;;;;;4955830;28;20023;-77
2021/09/22 08:59:20;;;;;;;24.42;20.65;;;13.80;99.90;;;;;;4955520;29;20492;-75
2021/09/22 09:02:05;;;;;;;22.23;18.88;;;13.80;99.90;;;;;;4938985;29;20020;-76
2021/09/22 09:04:30;;;;;;;24.15;20.35;;;13.80;99.90;;;;;;4938376;29;20039;-75
2021/09/22 09:06:57;;;;;;;23.48;21.00;;;13.80;99.90;;;;;;4955345;29;20487;-75
2021/09/22 09:09:36;;;;;;;22.42;20.00;;;13.80;99.90;;;;;;4938659;29;20082;-75
2021/09/22 09:12:13;;;;;;;26.70;22.30;;;13.80;99.90;;;;;;4937785;29;20384;-76
2021/09/22 09:14:39;;;;;;;21.42;19.13;;;13.90;99.90;;;;;;4938785;29;20440;-82
2021/09/22 09:17:11;;;;;;;20.50;18.40;;;13.90;99.90;;;;;;4938425;29;20114;-83
2021/09/22 09:19:44;;;;;;;23.58;21.02;;;14.00;99.90;;;;;;4937811;29;20054;-77
2021/09/22 09:22:10;;;;;;;27.38;21.55;;;14.00;99.90;;;;;;4938985;29;20400;-81
2021/09/22 09:24:41;;;;;;;21.15;18.95;;;14.10;99.90;;;;;;4938639;29;20031;-81
2021/09/22 09:27:11;;;;;;;19.83;16.80;;;14.10;99.90;;;;;;4938272;29;20047;-86
2021/09/22 09:29:40;;;;;;;22.30;18.58;;;14.10;99.90;;;;;;4938783;29;20472;-86
2021/09/22 09:32:11;;;;;;;20.10;17.88;;;14.20;99.90;;;;;;4937296;29;20366;-82
2021/09/22 09:34:37;;;;;;;20.23;17.77;;;14.20;99.90;;;;;;4938094;29;20082;-83
2021/09/22 09:37:02;;;;;;;19.63;17.42;;;14.30;99.90;;;;;;4954758;29;20023;-80
2021/09/22 09:39:30;;;;;;;18.35;16.42;;;14.30;99.90;;;;;;4952835;28;20039;-75
2021/09/22 09:41:57;;;;;;;18.23;16.23;;;14.40;99.90;;;;;;4917930;29;20477;-75
2021/09/22 09:44:29;;;;;;;20.67;17.77;;;14.50;99.90;;;;;;4920176;29;20503;-75
2021/09/22 09:47:06;;;;;;;20.63;16.50;;;14.60;99.90;;;;;;4935393;29;20019;-84
2021/09/22 09:49:34;;;;;;;21.00;17.75;;;14.60;99.90;;;;;;4936163;29;20024;-84
2021/09/22 09:52:02;;;;;;;19.75;17.20;;;14.70;99.90;;;;;;4933009;29;20042;-84
2021/09/22 09:54:32;;;;;;;17.63;15.80;;;14.80;99.90;;;;;;4954956;29;20066;-80
2021/09/22 09:57:17;;;;;;;20.08;16.98;;;14.80;99.90;;;;;;4937709;29;20027;-82
2021/09/22 09:59:45;;;;;;;18.85;16.85;;;15.00;99.90;;;;;;4938177;29;20027;-80
2021/09/22 10:02:26;;;;;;;17.58;15.40;;;15.00;99.90;;;;;;4921540;29;20031;-82
2021/09/22 10:04:52;;;;;;;18.58;15.90;;;15.10;99.90;;;;;;4937855;29;20043;-82
2021/09/22 10:07:18;;;;;;;17.00;15.05;;;15.10;99.90;;;;;;4936654;28;20070;-84
2021/09/22 10:09:44;;;;;;;16.88;14.65;;;15.20;99.90;;;;;;4938533;29;20039;-83
2021/09/22 10:12:11;;;;;;;18.27;14.55;;;15.30;99.90;;;;;;4936792;29;20419;-79
2021/09/22 10:14:38;;;;;;;19.63;15.98;;;15.20;99.90;;;;;;4936590;29;20592;-78
2021/09/22 10:17:04;;;;;;;17.02;14.68;;;15.20;99.90;;;;;;4936201;29;20034;-81
2021/09/22 10:19:30;;;;;;;17.80;14.80;;;15.30;99.90;;;;;;4935612;29;20035;-82
2021/09/22 10:21:56;;;;;;;15.45;13.43;;;15.40;99.90;;;;;;4953110;29;20050;-75
2021/09/22 10:24:22;;;;;;;17.70;14.07;;;15.50;99.90;;;;;;4937113;29;20047;-75
2021/09/22 10:26:48;;;;;;;18.52;15.23;;;15.50;99.90;;;;;;4936538;29;20103;-76
2021/09/22 10:29:36;;;;;;;19.02;14.27;;;15.60;99.90;;;;;;4935807;29;20039;-76
2021/09/22 10:32:04;;;;;;;17.05;13.93;;;15.70;99.90;;;;;;4936685;29;20027;-83
2021/09/22 10:34:33;;;;;;;22.55;17.23;;;15.70;99.90;;;;;;4937429;29;20031;-75
2021/09/22 10:37:02;;;;;;;17.25;15.00;;;15.70;99.90;;;;;;4953243;29;20023;-82
2021/09/22 10:39:36;;;;;;;16.90;14.07;;;15.80;99.90;;;;;;4954442;28;20472;-81
2021/09/22 10:42:25;;;;;;;17.83;14.05;;;15.80;99.90;;;;;;4936066;29;20435;-83
2021/09/22 10:44:51;;;;;;;18.05;15.23;;;15.80;99.90;;;;;;4936916;29;20122;-83
2021/09/22 10:47:26;;;;;;;20.38;16.42;;;15.80;99.90;;;;;;4953561;29;20102;-84
2021/09/22 10:49:53;;;;;;;18.45;15.18;;;15.90;99.90;;;;;;4937208;29;20031;-85
2021/09/22 10:52:30;;;;;;;19.08;16.88;;;16.00;99.90;;;;;;4937534;29;20027;-85
2021/09/22 10:55:05;;;;;;;18.65;14.90;;;16.10;99.90;;;;;;4936702;29;20019;-81
2021/09/22 10:57:31;;;;;;;16.42;14.20;;;16.10;99.90;;;;;;4936303;29;20122;-83
2021/09/22 11:00:14;;;;;;;17.67;14.80;;;16.10;99.90;;;;;;4937132;29;20119;-83
2021/09/22 11:02:48;;;;;;;18.60;14.43;;;16.20;99.90;;;;;;4937324;29;20050;-81
2021/09/22 11:05:33;;;;;;;17.45;15.48;;;16.20;99.90;;;;;;4953385;29;20062;-84
2021/09/22 11:08:00;;;;;;;16.98;14.85;;;16.30;99.90;;;;;;4936349;29;20019;-82
2021/09/22 11:10:41;;;;;;;17.45;14.20;;;16.40;99.90;;;;;;4936627;29;20053;-82
2021/09/22 11:13:19;;;;;;;14.60;11.93;;;16.50;99.90;;;;;;4936400;29;20035;-83
2021/09/22 11:16:06;;;;;;;15.05;12.50;;;16.50;99.90;;;;;;4954232;29;20058;-87
2021/09/22 11:18:40;;;;;;;17.15;12.45;;;16.50;99.90;;;;;;4934626;29;20126;-84
2021/09/22 11:21:06;;;;;;;12.98;10.85;;;16.50;99.90;;;;;;4920591;29;20112;-83
2021/09/22 11:23:32;;;;;;;11.35;10.15;;;16.50;99.90;;;;;;4921918;29;20126;-81
2021/09/22 11:26:09;;;;;;;14.30;11.95;;;16.50;99.90;;;;;;4921478;29;20139;-84
2021/09/22 11:28:35;;;;;;;14.05;12.63;;;16.60;99.90;;;;;;4939196;29;20032;-84
2021/09/22 11:31:04;;;;;;;17.42;13.77;;;16.60;99.90;;;;;;4942975;29;20476;-83
2021/09/22 11:33:29;;;;;;;14.20;12.32;;;16.70;99.90;;;;;;4957657;29;20082;-85
2021/09/22 11:36:05;;;;;;;13.50;11.93;;;16.80;99.90;;;;;;4940243;29;20023;-85
2021/09/22 11:38:36;;;;;;;15.90;11.02;;;16.90;99.90;;;;;;4924314;29;20408;-84
2021/09/22 11:41:03;;;;;;;14.98;12.35;;;16.90;99.90;;;;;;4940323;29;20073;-83
2021/09/22 11:43:29;;;;;;;16.67;13.30;;;16.90;99.90;;;;;;4941376;29;20062;-90
2021/09/22 11:46:00;;;;;;;15.50;12.32;;;16.90;99.90;;;;;;4940200;29;20146;-84
2021/09/22 11:48:32;;;;;;;13.73;12.27;;;16.90;99.90;;;;;;4958318;29;20023;-85
2021/09/22 11:50:58;;;;;;;;;;;17.00;99.90;;;;;;4958330;29;20558;-85
2021/09/22 11:53:26;;;;;;;14.27;12.73;;;17.10;99.90;;;;;;4939288;29;19929;-84
2021/09/22 11:55:56;;;;;;;15.48;11.35;;;17.10;99.90;;;;;;4940320;29;20114;-85
2021/09/22 11:58:25;;;;;;;13.07;10.50;;;17.20;99.90;;;;;;4957193;29;20023;-83
2021/09/22 12:00:54;;;;;;;11.70;10.57;;;17.20;99.90;;;;;;4940820;29;20027;-87
2021/09/22 12:03:22;;;;;;;12.88;11.35;;;17.20;99.90;;;;;;4940686;29;20065;-82
2021/09/22 12:06:14;;;;;;;11.48;10.20;;;17.20;99.90;;;;;;4939949;29;20019;-81
2021/09/22 12:08:43;;;;;;;13.35;10.57;;;17.30;99.90;;;;;;4939381;29;20110;-82
2021/09/22 12:11:10;;;;;;;17.38;12.07;;;17.30;99.90;;;;;;4939856;29;20110;-89
2021/09/22 12:13:44;;;;;;;13.73;11.43;;;17.30;99.90;;;;;;4940268;29;20138;-80
2021/09/22 12:16:10;;;;;;;15.40;11.02;;;17.40;99.90;;;;;;4939613;29;20113;-87
2021/09/22 12:18:39;;;;;;;11.90;9.30;;;17.50;99.90;;;;;;4940538;29;20486;-82
2021/09/22 12:21:11;;;;;;;14.10;10.00;;;17.50;99.90;;;;;;4956230;29;20134;-83
2021/09/22 12:23:36;;;;;;;;;;;17.50;99.90;;;;;;4939993;29;20049;-81
2021/09/22 12:26:20;;;;;;;13.07;10.15;;;17.50;99.90;;;;;;4938978;29;20411;-81
2021/09/22 12:29:02;;;;;;;10.80;8.77;;;17.60;99.90;;;;;;4939547;29;20540;-83